createdAt,value
2023-05-10T00:00:51.432Z,62.30
2023-05-10T00:01:51.596Z,61.79
2023-05-10T00:02:51.912Z,61.90
2023-05-10T00:03:51.969Z,61.90
2023-05-10T00:04:52.106Z,62.30
2023-05-10T00:05:52.279Z,62.20
2023-05-10T00:06:52.470Z,61.79
2023-05-10T00:07:52.653Z,62.10
2023-05-10T00:08:52.806Z,61.99
2023-05-10T00:09:52.948Z,61.90
2023-05-10T00:10:53.138Z,61.90
2023-05-10T00:11:53.284Z,61.79
2023-05-10T00:12:53.543Z,61.90
2023-05-10T00:13:53.686Z,61.90
2023-05-10T00:14:53.835Z,61.99
2023-05-10T00:15:53.981Z,62.10
2023-05-10T00:16:54.212Z,61.99
2023-05-10T00:17:54.383Z,62.20
2023-05-10T00:18:54.489Z,61.99
2023-05-10T00:19:54.621Z,61.90
2023-05-10T00:20:54.787Z,61.79
2023-05-10T00:21:54.906Z,61.99
2023-05-10T00:22:55.172Z,61.90
2023-05-10T00:23:55.309Z,61.99
2023-05-10T00:24:55.574Z,62.10
2023-05-10T00:25:55.770Z,62.10
2023-05-10T00:26:55.943Z,62.23
2023-05-10T00:27:56.107Z,62.13
2023-05-10T00:28:56.268Z,62.13
2023-05-10T00:29:56.470Z,62.23
2023-05-10T00:30:56.664Z,62.13
2023-05-10T00:31:56.818Z,62.54
2023-05-10T00:32:57.018Z,62.33
2023-05-10T00:33:57.158Z,62.43
2023-05-10T00:34:57.312Z,62.54
2023-05-10T00:35:57.476Z,62.63
2023-05-10T00:36:57.667Z,62.54
2023-05-10T00:37:57.829Z,62.54
2023-05-10T00:38:57.965Z,62.54
2023-05-10T00:39:58.146Z,63.04
2023-05-10T00:40:58.337Z,62.63
2023-05-10T00:41:58.504Z,62.74
2023-05-10T00:42:58.644Z,63.15
2023-05-10T00:43:58.805Z,63.15
2023-05-10T00:44:59.006Z,63.18
2023-05-10T00:45:59.213Z,63.38
2023-05-10T00:46:59.317Z,63.58
2023-05-10T00:47:59.506Z,63.79
2023-05-10T00:48:59.647Z,63.89
2023-05-10T00:49:59.790Z,63.89
2023-05-10T00:50:59.957Z,63.89
2023-05-10T00:52:00.155Z,64.22
2023-05-10T00:53:00.280Z,64.02
2023-05-10T00:54:00.428Z,64.32
2023-05-10T00:55:00.699Z,64.32
2023-05-10T00:56:00.892Z,64.32
2023-05-10T00:57:01.060Z,64.32
2023-05-10T00:58:01.212Z,64.43
2023-05-10T00:59:01.397Z,64.43
2023-05-10T01:00:01.514Z,64.43
2023-05-10T01:01:01.704Z,64.53
2023-05-10T01:02:01.853Z,64.43
2023-05-10T01:03:02.098Z,64.76
2023-05-10T01:04:02.149Z,64.76
2023-05-10T01:05:02.327Z,64.76
2023-05-10T01:06:02.493Z,64.87
2023-05-10T01:07:02.682Z,65.37
2023-05-10T01:08:02.785Z,65.17
2023-05-10T01:09:02.987Z,65.07
2023-05-10T01:10:03.138Z,65.07
2023-05-10T01:11:03.277Z,65.28
2023-05-10T01:12:03.478Z,65.28
2023-05-10T01:13:03.604Z,65.37
2023-05-10T01:14:03.712Z,65.37
2023-05-10T01:15:03.967Z,65.48
2023-05-10T01:16:04.215Z,65.58
2023-05-10T01:17:04.301Z,65.68
2023-05-10T01:18:04.464Z,65.48
2023-05-10T01:19:04.586Z,65.37
2023-05-10T01:20:04.745Z,65.58
2023-05-10T01:21:04.950Z,65.28
2023-05-10T01:22:05.068Z,65.58
2023-05-10T01:23:05.214Z,65.48
2023-05-10T01:24:05.458Z,65.28
2023-05-10T01:25:05.609Z,65.37
2023-05-10T01:26:05.771Z,65.48
2023-05-10T01:27:05.914Z,65.68
2023-05-10T01:28:06.070Z,65.81
2023-05-10T01:29:06.215Z,65.71
2023-05-10T01:30:15.541Z,65.51
2023-05-10T01:31:07.548Z,65.71
2023-05-10T01:32:06.672Z,65.81
2023-05-10T01:33:06.827Z,65.81
2023-05-10T01:34:07.000Z,66.02
2023-05-10T01:35:07.151Z,65.81
2023-05-10T01:36:07.323Z,66.02
2023-05-10T01:37:07.495Z,65.92
2023-05-10T01:38:07.666Z,65.92
2023-05-10T01:39:07.837Z,66.02
2023-05-10T01:40:08.019Z,65.92
2023-05-10T01:41:08.154Z,65.92
2023-05-10T01:42:08.305Z,66.12
2023-05-10T01:43:08.491Z,66.02
2023-05-10T01:44:08.648Z,66.33
2023-05-10T01:45:08.786Z,66.22
2023-05-10T01:46:09.008Z,66.22
2023-05-10T01:47:09.196Z,66.36
2023-05-10T01:48:09.380Z,66.33
2023-05-10T01:49:09.542Z,66.42
2023-05-10T01:50:09.692Z,66.63
2023-05-10T01:51:09.854Z,66.56
2023-05-10T01:52:09.997Z,66.77
2023-05-10T01:53:10.172Z,66.66
2023-05-10T01:54:10.291Z,66.86
2023-05-10T01:55:10.436Z,66.97
2023-05-10T01:56:10.642Z,66.86
2023-05-10T01:57:10.814Z,66.86
2023-05-10T01:58:10.949Z,67.07
2023-05-10T01:59:11.149Z,66.97
2023-05-10T02:00:11.334Z,66.86
2023-05-10T02:01:11.602Z,67.07
2023-05-10T02:02:11.632Z,66.97
2023-05-10T02:03:11.820Z,66.86
2023-05-10T02:04:12.120Z,67.18
2023-05-10T02:05:12.261Z,66.97
2023-05-10T02:06:12.497Z,66.86
2023-05-10T02:07:12.649Z,67.18
2023-05-10T02:08:12.851Z,67.07
2023-05-10T02:09:12.991Z,67.27
2023-05-10T02:10:13.357Z,67.41
2023-05-10T02:11:13.396Z,67.21
2023-05-10T02:12:13.567Z,67.41
2023-05-10T02:13:13.832Z,67.71
2023-05-10T02:14:13.913Z,67.41
2023-05-10T02:15:14.099Z,67.71
2023-05-10T02:16:14.299Z,67.82
2023-05-10T02:17:14.453Z,67.82
2023-05-10T02:18:14.645Z,68.12
2023-05-10T02:19:14.805Z,67.92
2023-05-10T02:20:15.247Z,68.02
2023-05-10T02:21:15.160Z,68.43
2023-05-10T02:22:15.332Z,68.33
2023-05-10T02:23:15.501Z,68.46
2023-05-10T02:24:15.646Z,68.46
2023-05-10T02:25:15.792Z,68.57
2023-05-10T02:26:16.107Z,68.77
2023-05-10T02:27:16.178Z,68.97
2023-05-10T02:28:16.326Z,68.97
2023-05-10T02:29:16.487Z,69.07
2023-05-10T02:30:16.931Z,68.77
2023-05-10T02:31:16.884Z,69.07
2023-05-10T02:32:17.020Z,69.28
2023-05-10T02:33:17.134Z,69.48
2023-05-10T02:34:17.293Z,69.31
2023-05-10T02:35:17.486Z,69.42
2023-05-10T02:36:17.663Z,69.52
2023-05-10T02:37:17.868Z,69.52
2023-05-10T02:38:17.982Z,69.72
2023-05-10T02:39:18.119Z,69.62
2023-05-10T02:40:18.727Z,69.52
2023-05-10T02:41:18.601Z,69.62
2023-05-10T02:42:18.812Z,69.42
2023-05-10T02:43:18.964Z,69.52
2023-05-10T02:44:19.207Z,69.52
2023-05-10T02:45:19.427Z,69.62
2023-05-10T02:46:19.759Z,69.52
2023-05-10T02:47:19.935Z,69.72
2023-05-10T02:48:20.076Z,69.72
2023-05-10T02:49:20.215Z,69.62
2023-05-10T02:50:20.460Z,69.82
2023-05-10T02:51:20.614Z,69.93
2023-05-10T02:52:20.774Z,69.93
2023-05-10T02:53:20.905Z,69.93
2023-05-10T02:54:21.172Z,70.13
2023-05-10T02:55:21.319Z,69.82
2023-05-10T02:56:21.606Z,69.93
2023-05-10T02:57:21.755Z,70.13
2023-05-10T02:58:21.939Z,70.03
2023-05-10T02:59:22.142Z,70.23
2023-05-10T03:00:22.336Z,70.26
2023-05-10T03:01:22.615Z,70.26
2023-05-10T03:02:22.835Z,70.16
2023-05-10T03:03:23.056Z,70.37
2023-05-10T03:04:23.281Z,70.57
2023-05-10T03:05:23.447Z,70.67
2023-05-10T03:06:23.640Z,70.67
2023-05-10T03:07:23.793Z,71.08
2023-05-10T03:08:23.952Z,70.67
2023-05-10T03:09:24.120Z,70.78
2023-05-10T03:10:24.284Z,70.67
2023-05-10T03:11:24.467Z,70.57
2023-05-10T03:12:24.658Z,70.57
2023-05-10T03:13:24.898Z,70.57
2023-05-10T03:14:24.970Z,70.47
2023-05-10T03:15:25.115Z,70.67
2023-05-10T03:16:25.366Z,70.78
2023-05-10T03:17:25.569Z,70.67
2023-05-10T03:18:25.711Z,70.26
2023-05-10T03:19:25.855Z,70.16
2023-05-10T03:20:26.146Z,70.57
2023-05-10T03:21:26.300Z,70.26
2023-05-10T03:22:26.473Z,70.57
2023-05-10T03:23:26.642Z,70.57
2023-05-10T03:24:26.945Z,70.26
2023-05-10T03:25:27.058Z,70.57
2023-05-10T03:26:27.346Z,70.16
2023-05-10T03:27:27.486Z,70.06
2023-05-10T03:28:27.667Z,70.16
2023-05-10T03:29:27.808Z,70.26
2023-05-10T03:30:27.996Z,70.26
2023-05-10T03:31:28.257Z,70.16
2023-05-10T03:32:28.357Z,70.37
2023-05-10T03:33:28.538Z,70.16
2023-05-10T03:34:28.694Z,70.47
2023-05-10T03:35:28.837Z,70.37
2023-05-10T03:36:29.025Z,70.37
2023-05-10T03:37:29.187Z,70.26
2023-05-10T03:38:30.471Z,70.37
2023-05-10T03:39:29.579Z,70.06
2023-05-10T03:40:29.865Z,69.96
2023-05-10T03:41:30.014Z,70.16
2023-05-10T03:42:30.193Z,70.16
2023-05-10T03:43:30.860Z,70.47
2023-05-10T03:44:30.590Z,70.37
2023-05-10T03:45:30.714Z,70.37
2023-05-10T03:46:30.932Z,70.26
2023-05-10T03:47:31.105Z,70.47
2023-05-10T03:48:31.292Z,70.47
2023-05-10T03:49:31.463Z,70.37
2023-05-10T03:50:31.595Z,70.06
2023-05-10T03:51:31.802Z,70.37
2023-05-10T03:52:31.927Z,70.26
2023-05-10T03:53:32.093Z,70.37
2023-05-10T03:54:32.232Z,70.26
2023-05-10T03:55:32.377Z,70.16
2023-05-10T03:56:32.728Z,70.16
2023-05-10T03:57:32.864Z,70.16
2023-05-10T03:58:33.174Z,70.47
2023-05-10T03:59:33.322Z,70.57
2023-05-10T04:00:33.468Z,70.16
2023-05-10T04:01:33.719Z,70.26
2023-05-10T04:02:34.019Z,70.06
2023-05-10T04:03:34.092Z,70.16
2023-05-10T04:04:34.238Z,70.06
2023-05-10T04:05:34.399Z,70.37
2023-05-10T04:06:34.590Z,70.37
2023-05-10T04:07:34.697Z,70.16
2023-05-10T04:08:34.957Z,70.06
2023-05-10T04:09:35.116Z,69.82
2023-05-10T04:10:35.376Z,69.62
2023-05-10T04:11:35.576Z,69.52
2023-05-10T04:12:35.751Z,69.93
2023-05-10T04:13:35.920Z,69.52
2023-05-10T04:14:36.072Z,69.42
2023-05-10T04:15:36.246Z,69.21
2023-05-10T04:16:36.447Z,69.31
2023-05-10T04:17:36.612Z,69.31
2023-05-10T04:18:36.804Z,69.21
2023-05-10T04:19:36.957Z,69.01
2023-05-10T04:20:37.144Z,69.01
2023-05-10T04:21:37.336Z,68.57
2023-05-10T04:22:37.538Z,68.66
2023-05-10T04:23:37.708Z,68.77
2023-05-10T04:24:37.878Z,69.18
2023-05-10T04:25:38.028Z,68.66
2023-05-10T04:26:38.210Z,68.77
2023-05-10T04:27:38.388Z,68.66
2023-05-10T04:28:38.586Z,68.57
2023-05-10T04:29:38.742Z,68.66
2023-05-10T04:30:38.918Z,68.66
2023-05-10T04:31:39.113Z,68.46
2023-05-10T04:32:39.298Z,68.66
2023-05-10T04:33:39.454Z,68.66
2023-05-10T04:34:39.619Z,68.36
2023-05-10T04:35:39.780Z,68.36
2023-05-10T04:36:39.943Z,68.26
2023-05-10T04:37:40.098Z,68.36
2023-05-10T04:38:40.257Z,68.16
2023-05-10T04:39:42.420Z,68.33
2023-05-10T04:40:40.750Z,68.12
2023-05-10T04:41:40.904Z,68.12
2023-05-10T04:42:40.978Z,67.51
2023-05-10T04:43:41.134Z,67.71
2023-05-10T04:44:41.306Z,67.30
2023-05-10T04:45:41.454Z,67.30
2023-05-10T04:46:42.679Z,67.21
2023-05-10T04:47:42.041Z,67.58
2023-05-10T04:48:41.945Z,67.07
2023-05-10T04:49:42.112Z,67.18
2023-05-10T04:50:42.280Z,67.27
2023-05-10T04:51:42.460Z,67.38
2023-05-10T04:52:42.675Z,66.97
2023-05-10T04:53:46.499Z,66.77
2023-05-10T04:54:45.005Z,66.36
2023-05-10T04:55:43.166Z,66.25
2023-05-10T04:56:43.319Z,66.33
2023-05-10T04:57:43.487Z,66.22
2023-05-10T04:58:43.638Z,66.22
2023-05-10T04:59:43.825Z,66.02
2023-05-10T05:00:43.988Z,66.22
2023-05-10T05:01:44.178Z,65.81
2023-05-10T05:02:44.381Z,65.92
2023-05-10T05:03:44.671Z,65.78
2023-05-10T05:04:44.711Z,65.48
2023-05-10T05:05:44.884Z,65.58
2023-05-10T05:06:45.049Z,65.37
2023-05-10T05:07:45.205Z,65.17
2023-05-10T05:08:45.517Z,64.97
2023-05-10T05:09:45.650Z,65.17
2023-05-10T05:10:45.864Z,64.87
2023-05-10T05:11:46.070Z,65.14
2023-05-10T05:12:46.198Z,64.84
2023-05-10T05:13:46.336Z,64.53
2023-05-10T05:14:46.498Z,65.04
2023-05-10T05:15:46.881Z,64.29
2023-05-10T05:16:46.910Z,64.20
2023-05-10T05:17:47.124Z,63.92
2023-05-10T05:18:47.341Z,63.92
2023-05-10T05:19:47.485Z,63.99
2023-05-10T05:20:47.676Z,63.79
2023-05-10T05:21:47.805Z,63.48
2023-05-10T05:22:48.029Z,63.79
2023-05-10T05:23:48.172Z,63.99
2023-05-10T05:24:48.313Z,63.48
2023-05-10T05:25:48.498Z,63.45
2023-05-10T05:26:48.669Z,63.45
2023-05-10T05:27:48.829Z,63.45
2023-05-10T05:28:48.975Z,63.45
2023-05-10T05:29:49.134Z,63.35
2023-05-10T05:30:49.318Z,63.15
2023-05-10T05:31:49.474Z,63.15
2023-05-10T05:32:49.650Z,62.94
2023-05-10T05:33:49.783Z,62.94
2023-05-10T05:34:49.926Z,62.94
2023-05-10T05:35:50.193Z,62.94
2023-05-10T05:36:50.346Z,63.04
2023-05-10T05:37:50.587Z,63.12
2023-05-10T05:38:50.750Z,62.71
2023-05-10T05:39:58.248Z,62.92
2023-05-10T05:40:51.029Z,62.92
2023-05-10T05:41:51.339Z,62.61
2023-05-10T05:42:53.060Z,62.48
2023-05-10T05:43:51.524Z,62.37
2023-05-10T05:44:51.664Z,62.37
2023-05-10T05:45:51.867Z,62.58
2023-05-10T05:46:51.985Z,62.58
2023-05-10T05:47:52.155Z,62.48
2023-05-10T05:48:52.265Z,62.37
2023-05-10T05:49:52.419Z,62.04
2023-05-10T05:50:52.557Z,62.07
2023-05-10T05:51:52.687Z,62.24
2023-05-10T05:52:52.844Z,61.97
2023-05-10T05:53:52.989Z,62.14
2023-05-10T05:54:53.139Z,61.83
2023-05-10T05:55:53.300Z,61.83
2023-05-10T05:56:53.412Z,61.51
2023-05-10T05:57:53.568Z,61.07
2023-05-10T05:58:53.724Z,60.53
2023-05-10T05:59:53.853Z,59.36
2023-05-10T06:00:54.011Z,58.29
2023-05-10T06:01:54.189Z,56.92
2023-05-10T06:02:54.448Z,55.35
2023-05-10T06:03:54.585Z,54.61
2023-05-10T06:04:54.723Z,53.67
2023-05-10T06:05:54.890Z,52.51
2023-05-10T06:06:55.010Z,52.29
2023-05-10T06:07:55.662Z,52.19
2023-05-10T06:08:55.241Z,51.33
2023-05-10T06:09:55.360Z,51.68
2023-05-10T06:10:55.467Z,52.21
2023-05-10T06:11:55.607Z,52.39
2023-05-10T06:12:55.849Z,51.43
2023-05-10T06:13:55.942Z,50.82
2023-05-10T06:14:56.053Z,51.13
2023-05-10T06:15:56.169Z,50.50
2023-05-10T06:16:56.842Z,50.20
2023-05-10T06:17:56.508Z,50.40
2023-05-10T06:18:57.028Z,50.82
2023-05-10T06:19:56.707Z,50.82
2023-05-10T06:20:56.792Z,50.62
2023-05-10T06:21:56.909Z,50.82
2023-05-10T06:22:57.011Z,50.07
2023-05-10T06:23:57.121Z,49.67
2023-05-10T06:24:57.221Z,50.50
2023-05-10T06:25:57.435Z,49.87
2023-05-10T06:26:57.553Z,49.65
2023-05-10T06:27:57.707Z,49.57
2023-05-10T06:28:57.766Z,49.90
2023-05-10T06:30:11.579Z,50.42
2023-05-10T06:30:58.934Z,50.60
2023-05-10T06:31:58.216Z,50.52
2023-05-10T06:32:58.455Z,50.17
2023-05-10T06:33:58.417Z,50.20
2023-05-10T06:34:58.528Z,50.62
2023-05-10T06:35:58.624Z,50.73
2023-05-10T06:36:58.732Z,50.17
2023-05-10T06:37:58.819Z,49.22
2023-05-10T06:38:58.888Z,48.44
2023-05-10T06:39:59.085Z,47.62
2023-05-10T06:40:59.166Z,47.14
2023-05-10T06:41:59.251Z,47.09
2023-05-10T06:42:59.353Z,46.72
2023-05-10T06:43:59.441Z,47.06
2023-05-10T06:44:59.509Z,47.74
2023-05-10T06:45:59.651Z,47.24
2023-05-10T06:46:59.664Z,46.49
2023-05-10T06:47:59.866Z,46.29
2023-05-10T06:48:59.812Z,46.54
2023-05-10T06:49:59.894Z,47.69
2023-05-10T06:50:59.955Z,48.07
2023-05-10T06:52:00.164Z,46.47
2023-05-10T06:53:00.228Z,45.87
2023-05-10T06:54:00.309Z,46.51
2023-05-10T06:55:00.384Z,47.26
2023-05-10T06:56:00.458Z,47.89
2023-05-10T06:57:01.825Z,48.07
2023-05-10T06:58:00.689Z,47.79
2023-05-10T06:59:00.807Z,48.32
2023-05-10T07:00:00.881Z,49.35
2023-05-10T07:01:00.969Z,48.19
2023-05-10T07:02:01.071Z,47.97
2023-05-10T07:03:01.146Z,47.94
2023-05-10T07:04:01.181Z,47.97
2023-05-10T07:05:03.257Z,47.97
2023-05-10T07:06:01.444Z,47.86
2023-05-10T07:07:01.530Z,48.52
2023-05-10T07:08:01.654Z,48.82
2023-05-10T07:09:02.716Z,48.82
2023-05-10T07:10:01.913Z,48.82
2023-05-10T07:11:01.957Z,48.25
2023-05-10T07:12:02.141Z,47.02
2023-05-10T07:13:02.207Z,47.14
2023-05-10T07:14:02.156Z,47.54
2023-05-10T07:15:02.235Z,47.52
2023-05-10T07:16:02.307Z,46.35
2023-05-10T07:17:02.393Z,45.20
2023-05-10T07:18:02.587Z,45.00
2023-05-10T07:19:02.582Z,44.92
2023-05-10T07:20:02.757Z,45.53
2023-05-10T07:21:02.680Z,45.02
2023-05-10T07:22:02.758Z,45.65
2023-05-10T07:23:02.837Z,46.17
2023-05-10T07:24:02.917Z,46.49
2023-05-10T07:25:02.961Z,47.00
2023-05-10T07:26:03.041Z,46.39
2023-05-10T07:27:03.116Z,46.25
2023-05-10T07:28:03.187Z,45.54
2023-05-10T07:29:03.238Z,46.17
2023-05-10T07:30:03.297Z,46.03
2023-05-10T07:31:03.404Z,45.10
2023-05-10T07:32:03.540Z,45.53
2023-05-10T07:33:03.533Z,45.65
2023-05-10T07:34:03.601Z,46.59
2023-05-10T07:35:03.660Z,47.00
2023-05-10T07:36:03.722Z,46.55
2023-05-10T07:37:03.790Z,45.75
2023-05-10T07:38:03.843Z,45.53
2023-05-10T07:39:03.885Z,45.65
2023-05-10T07:40:03.958Z,46.57
2023-05-10T07:41:03.978Z,46.89
2023-05-10T07:42:04.058Z,47.00
2023-05-10T07:43:04.162Z,46.97
2023-05-10T07:44:04.202Z,46.27
2023-05-10T07:45:04.238Z,46.72
2023-05-10T07:46:04.347Z,47.00
2023-05-10T07:47:04.387Z,46.57
2023-05-10T07:48:04.457Z,46.47
2023-05-10T07:49:04.490Z,46.97
2023-05-10T07:50:04.549Z,46.65
2023-05-10T07:51:04.589Z,46.15
2023-05-10T07:52:04.642Z,45.97
2023-05-10T07:53:04.690Z,46.25
2023-05-10T07:54:04.732Z,45.54
2023-05-10T07:55:04.752Z,46.39
2023-05-10T07:56:04.827Z,46.77
2023-05-10T07:57:04.878Z,46.67
2023-05-10T07:58:04.962Z,45.83
2023-05-10T07:59:04.998Z,45.95
2023-05-10T08:00:05.036Z,45.77
2023-05-10T08:01:05.135Z,46.27
2023-05-10T08:02:05.136Z,45.83
2023-05-10T08:03:05.286Z,45.12
2023-05-10T08:04:05.346Z,46.07
2023-05-10T08:05:05.252Z,45.95
2023-05-10T08:06:05.305Z,45.62
2023-05-10T08:07:05.369Z,45.80
2023-05-10T08:08:05.430Z,45.00
2023-05-10T08:09:05.504Z,45.65
2023-05-10T08:10:05.527Z,46.37
2023-05-10T08:11:05.570Z,46.25
2023-05-10T08:12:05.619Z,46.47
2023-05-10T08:13:05.681Z,46.55
2023-05-10T08:14:05.718Z,45.58
2023-05-10T08:15:05.765Z,44.34
2023-05-10T08:16:05.823Z,43.62
2023-05-10T08:17:05.828Z,43.85
2023-05-10T08:18:05.960Z,44.78
2023-05-10T08:19:06.430Z,44.98
2023-05-10T08:20:06.058Z,44.48
2023-05-10T08:21:06.069Z,45.20
2023-05-10T08:22:06.119Z,45.45
2023-05-10T08:23:06.156Z,46.04
2023-05-10T08:24:06.198Z,45.62
2023-05-10T08:25:06.227Z,45.02
2023-05-10T08:26:06.264Z,45.08
2023-05-10T08:27:06.352Z,45.18
2023-05-10T08:28:06.388Z,45.18
2023-05-10T08:29:06.444Z,45.70
2023-05-10T08:30:06.474Z,45.53
2023-05-10T08:31:06.589Z,46.38
2023-05-10T08:32:06.594Z,45.28
2023-05-10T08:33:06.638Z,44.58
2023-05-10T08:34:06.686Z,44.88
2023-05-10T08:35:06.719Z,44.90
2023-05-10T08:36:06.774Z,45.42
2023-05-10T08:37:06.772Z,46.25
2023-05-10T08:38:06.818Z,45.95
2023-05-10T08:39:13.559Z,45.70
2023-05-10T08:40:07.911Z,45.70
2023-05-10T08:41:07.046Z,46.33
2023-05-10T08:42:06.990Z,46.11
2023-05-10T08:43:07.060Z,46.41
2023-05-10T08:44:07.089Z,45.34
2023-05-10T08:45:07.119Z,44.20
2023-05-10T08:46:07.142Z,43.33
2023-05-10T08:47:07.330Z,44.54
2023-05-10T08:48:07.283Z,44.42
2023-05-10T08:49:08.280Z,44.76
2023-05-10T08:50:07.432Z,45.30
2023-05-10T08:51:07.459Z,46.33
2023-05-10T08:52:07.511Z,46.41
2023-05-10T08:53:07.597Z,45.68
2023-05-10T08:54:07.618Z,44.96
2023-05-10T08:55:07.640Z,45.38
2023-05-10T08:56:07.675Z,45.58
2023-05-10T08:57:07.699Z,45.26
2023-05-10T08:58:07.776Z,45.14
2023-05-10T08:59:07.770Z,44.84
2023-05-10T09:00:07.788Z,44.74
2023-05-10T09:01:07.865Z,45.38
2023-05-10T09:02:07.841Z,45.38
2023-05-10T09:03:07.988Z,46.18
2023-05-10T09:04:08.009Z,45.76
2023-05-10T09:05:08.064Z,45.24
2023-05-10T09:06:07.980Z,44.32
2023-05-10T09:07:07.975Z,44.24
2023-05-10T09:08:08.045Z,44.84
2023-05-10T09:09:08.030Z,45.24
2023-05-10T09:10:08.082Z,44.96
2023-05-10T09:11:08.160Z,44.76
2023-05-10T09:12:08.119Z,45.06
2023-05-10T09:13:08.226Z,45.04
2023-05-10T09:14:08.248Z,45.06
2023-05-10T09:15:08.274Z,45.04
2023-05-10T09:16:20.462Z,44.62
2023-05-10T09:17:09.383Z,44.57
2023-05-10T09:18:08.438Z,43.57
2023-05-10T09:19:08.560Z,43.90
2023-05-10T09:20:08.483Z,43.27
2023-05-10T09:21:08.491Z,43.98
2023-05-10T09:22:08.477Z,43.48
2023-05-10T09:23:08.562Z,42.85
2023-05-10T09:24:08.473Z,43.70
2023-05-10T09:25:08.513Z,44.54
2023-05-10T09:26:08.512Z,45.14
2023-05-10T09:27:08.710Z,45.26
2023-05-10T09:28:08.507Z,45.58
2023-05-10T09:29:08.537Z,45.66
2023-05-10T09:30:08.548Z,45.21
2023-05-10T09:31:08.595Z,44.71
2023-05-10T09:32:08.669Z,43.99
2023-05-10T09:33:08.665Z,44.15
2023-05-10T09:34:08.688Z,43.37
2023-05-10T09:35:08.671Z,43.91
2023-05-10T09:36:09.082Z,44.96
2023-05-10T09:37:09.117Z,44.93
2023-05-10T09:38:09.062Z,45.34
2023-05-10T09:39:08.953Z,45.04
2023-05-10T09:40:08.888Z,44.71
2023-05-10T09:41:08.876Z,44.42
2023-05-10T09:42:09.228Z,44.70
2023-05-10T09:43:08.870Z,43.55
2023-05-10T09:44:08.896Z,43.70
2023-05-10T09:45:08.889Z,44.62
2023-05-10T09:46:08.927Z,45.58
2023-05-10T09:47:08.911Z,45.64
2023-05-10T09:48:08.920Z,44.79
2023-05-10T09:49:08.933Z,43.95
2023-05-10T09:50:08.933Z,43.35
2023-05-10T09:51:09.012Z,43.18
2023-05-10T09:52:08.957Z,43.29
2023-05-10T09:53:08.953Z,44.01
2023-05-10T09:54:08.967Z,44.71
2023-05-10T09:55:08.953Z,44.42
2023-05-10T09:56:08.955Z,45.31
2023-05-10T09:57:08.927Z,44.49
2023-05-10T09:58:08.912Z,43.77
2023-05-10T09:59:08.903Z,44.01
2023-05-10T10:00:08.923Z,44.74
2023-05-10T10:01:08.963Z,44.62
2023-05-10T10:02:08.908Z,43.77
2023-05-10T10:03:08.941Z,43.48
2023-05-10T10:04:08.903Z,43.90
2023-05-10T10:05:09.076Z,43.98
2023-05-10T10:06:18.833Z,43.85
2023-05-10T10:07:09.851Z,42.61
2023-05-10T10:08:08.864Z,42.40
2023-05-10T10:09:08.844Z,42.37
2023-05-10T10:10:08.827Z,41.75
2023-05-10T10:11:08.823Z,41.58
2023-05-10T10:12:09.470Z,41.39
2023-05-10T10:13:08.798Z,41.39
2023-05-10T10:14:08.783Z,42.13
2023-05-10T10:15:08.735Z,42.15
2023-05-10T10:16:08.768Z,42.47
2023-05-10T10:17:09.219Z,42.68
2023-05-10T10:18:08.837Z,43.03
2023-05-10T10:19:08.701Z,42.65
2023-05-10T10:20:11.154Z,43.48
2023-05-10T10:21:08.771Z,44.07
2023-05-10T10:22:08.762Z,43.75
2023-05-10T10:23:08.766Z,43.43
2023-05-10T10:24:08.785Z,42.77
2023-05-10T10:25:08.772Z,40.94
2023-05-10T10:26:08.757Z,41.66
2023-05-10T10:27:08.751Z,41.60
2023-05-10T10:28:08.746Z,41.67
2023-05-10T10:29:08.735Z,41.77
2023-05-10T10:30:08.711Z,42.29
2023-05-10T10:31:08.748Z,41.39
2023-05-10T10:32:08.702Z,42.03
2023-05-10T10:33:20.160Z,42.54
2023-05-10T10:34:09.687Z,42.46
2023-05-10T10:35:08.704Z,42.33
2023-05-10T10:36:08.694Z,42.41
2023-05-10T10:37:08.733Z,41.53
2023-05-10T10:38:08.768Z,42.65
2023-05-10T10:39:08.767Z,43.25
2023-05-10T10:40:08.837Z,42.93
2023-05-10T10:41:08.837Z,41.99
2023-05-10T10:42:08.829Z,41.47
2023-05-10T10:43:08.832Z,42.32
2023-05-10T10:44:08.813Z,41.50
2023-05-10T10:45:08.814Z,41.08
2023-05-10T10:46:08.814Z,41.69
2023-05-10T10:47:08.882Z,41.67
2023-05-10T10:48:08.868Z,40.74
2023-05-10T10:49:08.822Z,40.00
2023-05-10T10:50:09.124Z,39.69
2023-05-10T10:51:10.694Z,40.12
2023-05-10T10:52:08.866Z,40.02
2023-05-10T10:53:08.865Z,41.55
2023-05-10T10:54:08.875Z,40.46
2023-05-10T10:55:08.874Z,40.76
2023-05-10T10:56:08.863Z,40.86
2023-05-10T10:57:08.845Z,40.64
2023-05-10T10:58:08.855Z,40.00
2023-05-10T10:59:08.862Z,39.78
2023-05-10T11:00:08.851Z,39.09
2023-05-10T11:01:08.971Z,40.16
2023-05-10T11:02:08.836Z,40.08
2023-05-10T11:03:09.310Z,39.29
2023-05-10T11:04:08.905Z,38.77
2023-05-10T11:05:09.245Z,38.95
2023-05-10T11:06:08.915Z,38.97
2023-05-10T11:07:08.898Z,39.70
2023-05-10T11:08:08.877Z,40.40
2023-05-10T11:09:08.853Z,39.92
2023-05-10T11:10:08.852Z,39.89
2023-05-10T11:11:08.860Z,40.52
2023-05-10T11:12:08.845Z,40.80
2023-05-10T11:13:08.842Z,39.80
2023-05-10T11:14:08.857Z,39.92
2023-05-10T11:15:08.846Z,41.52
2023-05-10T11:16:08.863Z,39.83
2023-05-10T11:17:08.979Z,39.53
2023-05-10T11:18:08.883Z,39.90
2023-05-10T11:19:09.074Z,40.00
2023-05-10T11:20:08.951Z,39.67
2023-05-10T11:21:08.936Z,38.34
2023-05-10T11:22:08.936Z,38.24
2023-05-10T11:23:08.948Z,38.24
2023-05-10T11:24:08.958Z,39.05
2023-05-10T11:25:09.205Z,38.60
2023-05-10T11:26:08.972Z,37.69
2023-05-10T11:27:08.976Z,37.92
2023-05-10T11:28:08.960Z,38.56
2023-05-10T11:29:08.963Z,39.29
2023-05-10T11:30:08.970Z,39.97
2023-05-10T11:31:08.974Z,39.37
2023-05-10T11:32:08.941Z,39.86
2023-05-10T11:33:08.974Z,38.54
2023-05-10T11:34:08.959Z,37.79
2023-05-10T11:35:08.996Z,36.86
2023-05-10T11:36:09.008Z,35.14
2023-05-10T11:37:09.013Z,36.21
2023-05-10T11:38:09.028Z,34.30
2023-05-10T11:39:09.060Z,34.34
2023-05-10T11:40:09.130Z,36.30
2023-05-10T11:41:18.292Z,36.22
2023-05-10T11:42:09.286Z,36.83
2023-05-10T11:43:09.188Z,36.85
2023-05-10T11:44:09.590Z,37.43
2023-05-10T11:45:09.210Z,36.32
2023-05-10T11:46:09.349Z,36.08
2023-05-10T11:47:10.069Z,35.73
2023-05-10T11:48:09.515Z,35.22
2023-05-10T11:49:09.313Z,35.17
2023-05-10T11:50:09.330Z,36.02
2023-05-10T11:51:09.352Z,36.51
2023-05-10T11:52:10.282Z,36.53
2023-05-10T11:53:09.714Z,37.30
2023-05-10T11:54:09.415Z,37.54
2023-05-10T11:55:09.439Z,37.13
2023-05-10T11:56:09.463Z,37.11
2023-05-10T11:57:09.549Z,37.23
2023-05-10T11:58:09.529Z,36.71
2023-05-10T11:59:09.598Z,36.91
2023-05-10T12:00:09.602Z,36.46
2023-05-10T12:01:09.650Z,35.95
2023-05-10T12:02:09.678Z,35.77
2023-05-10T12:03:09.846Z,35.46
2023-05-10T12:04:09.928Z,35.67
2023-05-10T12:05:10.085Z,36.48
2023-05-10T12:06:09.976Z,36.26
2023-05-10T12:07:10.027Z,36.36
2023-05-10T12:08:10.012Z,35.95
2023-05-10T12:09:10.049Z,34.34
2023-05-10T12:10:10.082Z,34.45
2023-05-10T12:11:10.120Z,34.43
2023-05-10T12:12:10.139Z,33.80
2023-05-10T12:13:10.145Z,33.42
2023-05-10T12:14:10.250Z,34.05
2023-05-10T12:15:10.162Z,35.04
2023-05-10T12:16:10.185Z,35.12
2023-05-10T12:17:10.184Z,35.12
2023-05-10T12:18:10.249Z,34.78
2023-05-10T12:19:10.337Z,33.94
2023-05-10T12:20:10.220Z,33.39
2023-05-10T12:21:10.280Z,34.28
2023-05-10T12:22:10.285Z,34.08
2023-05-10T12:23:10.349Z,33.77
2023-05-10T12:24:10.413Z,32.64
2023-05-10T12:25:10.437Z,32.34
2023-05-10T12:26:10.443Z,33.09
2023-05-10T12:27:10.485Z,34.84
2023-05-10T12:28:10.598Z,33.95
2023-05-10T12:29:10.497Z,34.27
2023-05-10T12:30:10.559Z,34.68
2023-05-10T12:31:10.581Z,34.56
2023-05-10T12:32:10.759Z,34.61
2023-05-10T12:33:10.873Z,34.71
2023-05-10T12:34:10.696Z,33.89
2023-05-10T12:35:10.744Z,32.95
2023-05-10T12:36:10.779Z,32.77
2023-05-10T12:37:10.888Z,33.61
2023-05-10T12:38:10.817Z,34.83
2023-05-10T12:39:11.501Z,34.23
2023-05-10T12:40:11.316Z,36.33
2023-05-10T12:41:11.495Z,34.71
2023-05-10T12:42:11.620Z,34.06
2023-05-10T12:43:11.091Z,34.63
2023-05-10T12:44:11.152Z,33.94
2023-05-10T12:45:11.180Z,33.72
2023-05-10T12:46:11.268Z,34.36
2023-05-10T12:47:11.302Z,34.03
2023-05-10T12:48:11.910Z,34.46
2023-05-10T12:49:11.354Z,34.89
2023-05-10T12:50:11.472Z,34.78
2023-05-10T12:51:11.371Z,34.46
2023-05-10T12:52:11.460Z,34.41
2023-05-10T12:53:11.466Z,33.11
2023-05-10T12:54:11.461Z,33.00